sensor_id;sensor_type;location;lat;lon;timestamp;P1;durP1;ratioP1;P2;durP2;ratioP2
50591;SDS011;36548;50.506;30.834;2023-06-10T00:00:26;7.20;;;5.00;;
50591;SDS011;36548;50.506;30.834;2023-06-10T00:01:42;7.62;;;4.60;;
50591;SDS011;36548;50.506;30.834;2023-06-10T00:04:07;7.82;;;4.83;;
50591;SDS011;36548;50.506;30.834;2023-06-10T00:05:22;6.58;;;4.52;;
50591;SDS011;36548;50.506;30.834;2023-06-10T00:06:32;4.87;;;4.40;;
50591;SDS011;36548;50.506;30.834;2023-06-10T00:07:44;6.43;;;4.50;;
50591;SDS011;36548;50.506;30.834;2023-06-10T00:09:02;7.65;;;4.67;;
50591;SDS011;36548;50.506;30.834;2023-06-10T00:10:14;4.58;;;4.13;;
50591;SDS011;36548;50.506;30.834;2023-06-10T00:11:24;6.30;;;4.30;;
50591;SDS011;36548;50.506;30.834;2023-06-10T00:12:39;7.08;;;3.82;;
50591;SDS011;36548;50.506;30.834;2023-06-10T00:15:06;4.30;;;3.90;;
50591;SDS011;36548;50.506;30.834;2023-06-10T00:16:17;7.48;;;3.83;;
50591;SDS011;36548;50.506;30.834;2023-06-10T00:17:33;6.60;;;3.95;;
50591;SDS011;36548;50.506;30.834;2023-06-10T00:18:43;6.15;;;3.60;;
50591;SDS011;36548;50.506;30.834;2023-06-10T00:20:19;6.28;;;3.98;;
50591;SDS011;36548;50.506;30.834;2023-06-10T00:21:31;4.20;;;3.48;;
50591;SDS011;36548;50.506;30.834;2023-06-10T00:22:50;6.10;;;3.80;;
50591;SDS011;36548;50.506;30.834;2023-06-10T00:25:11;3.67;;;3.32;;
50591;SDS011;36548;50.506;30.834;2023-06-10T00:26:22;5.80;;;3.65;;
50591;SDS011;36548;50.506;30.834;2023-06-10T00:27:38;6.97;;;4.25;;
50591;SDS011;36548;50.506;30.834;2023-06-10T00:28:46;5.18;;;3.70;;
50591;SDS011;36548;50.506;30.834;2023-06-10T00:30:03;6.18;;;4.55;;
50591;SDS011;36548;50.506;30.834;2023-06-10T00:31:14;7.58;;;4.68;;
50591;SDS011;36548;50.506;30.834;2023-06-10T00:32:25;7.95;;;4.30;;
50591;SDS011;36548;50.506;30.834;2023-06-10T00:33:35;6.90;;;3.70;;
50591;SDS011;36548;50.506;30.834;2023-06-10T00:34:44;6.10;;;4.15;;
50591;SDS011;36548;50.506;30.834;2023-06-10T00:35:54;8.60;;;4.20;;
50591;SDS011;36548;50.506;30.834;2023-06-10T00:37:09;5.33;;;4.32;;
50591;SDS011;36548;50.506;30.834;2023-06-10T00:38:18;6.37;;;4.63;;
50591;SDS011;36548;50.506;30.834;2023-06-10T00:39:34;6.53;;;4.10;;
50591;SDS011;36548;50.506;30.834;2023-06-10T00:40:45;7.63;;;3.82;;
50591;SDS011;36548;50.506;30.834;2023-06-10T00:42:01;7.13;;;4.47;;
50591;SDS011;36548;50.506;30.834;2023-06-10T00:43:11;6.78;;;4.48;;
50591;SDS011;36548;50.506;30.834;2023-06-10T00:44:28;5.92;;;4.77;;
50591;SDS011;36548;50.506;30.834;2023-06-10T00:45:37;6.80;;;4.53;;
50591;SDS011;36548;50.506;30.834;2023-06-10T00:46:53;5.78;;;4.68;;
50591;SDS011;36548;50.506;30.834;2023-06-10T00:48:05;5.52;;;4.25;;
50591;SDS011;36548;50.506;30.834;2023-06-10T00:49:16;6.23;;;4.43;;
50591;SDS011;36548;50.506;30.834;2023-06-10T00:51:48;6.18;;;5.07;;
50591;SDS011;36548;50.506;30.834;2023-06-10T00:53:03;7.20;;;5.68;;
50591;SDS011;36548;50.506;30.834;2023-06-10T00:54:12;6.52;;;5.35;;
50591;SDS011;36548;50.506;30.834;2023-06-10T00:55:28;6.72;;;5.87;;
50591;SDS011;36548;50.506;30.834;2023-06-10T00:56:38;6.28;;;5.65;;
50591;SDS011;36548;50.506;30.834;2023-06-10T00:57:48;6.85;;;5.85;;
50591;SDS011;36548;50.506;30.834;2023-06-10T00:58:58;7.25;;;5.62;;
50591;SDS011;36548;50.506;30.834;2023-06-10T01:00:20;10.60;;;6.77;;
50591;SDS011;36548;50.506;30.834;2023-06-10T01:02:52;6.82;;;6.10;;
50591;SDS011;36548;50.506;30.834;2023-06-10T01:04:01;11.90;;;7.10;;
50591;SDS011;36548;50.506;30.834;2023-06-10T01:05:17;11.12;;;5.85;;
50591;SDS011;36548;50.506;30.834;2023-06-10T01:06:47;8.65;;;6.30;;
50591;SDS011;36548;50.506;30.834;2023-06-10T01:08:09;5.65;;;5.12;;
50591;SDS011;36548;50.506;30.834;2023-06-10T01:10:47;6.78;;;5.52;;
50591;SDS011;36548;50.506;30.834;2023-06-10T01:13:24;5.65;;;4.85;;
50591;SDS011;36548;50.506;30.834;2023-06-10T01:14:41;7.37;;;5.22;;
50591;SDS011;36548;50.506;30.834;2023-06-10T01:15:59;6.77;;;5.00;;
50591;SDS011;36548;50.506;30.834;2023-06-10T01:17:08;5.57;;;4.92;;
50591;SDS011;36548;50.506;30.834;2023-06-10T01:20:39;6.55;;;4.70;;
50591;SDS011;36548;50.506;30.834;2023-06-10T01:21:54;5.52;;;5.05;;
50591;SDS011;36548;50.506;30.834;2023-06-10T01:23:04;4.82;;;4.40;;
50591;SDS011;36548;50.506;30.834;2023-06-10T01:24:19;5.85;;;4.27;;
50591;SDS011;36548;50.506;30.834;2023-06-10T01:25:29;6.15;;;5.00;;
50591;SDS011;36548;50.506;30.834;2023-06-10T01:26:42;7.12;;;5.00;;
50591;SDS011;36548;50.506;30.834;2023-06-10T01:28:00;6.50;;;5.35;;
50591;SDS011;36548;50.506;30.834;2023-06-10T01:29:31;5.87;;;5.32;;
50591;SDS011;36548;50.506;30.834;2023-06-10T01:32:16;5.40;;;4.50;;
50591;SDS011;36548;50.506;30.834;2023-06-10T01:33:29;8.08;;;4.92;;
50591;SDS011;36548;50.506;30.834;2023-06-10T01:34:42;5.33;;;4.53;;
50591;SDS011;36548;50.506;30.834;2023-06-10T01:35:55;5.93;;;4.90;;
50591;SDS011;36548;50.506;30.834;2023-06-10T01:37:06;6.90;;;5.03;;
50591;SDS011;36548;50.506;30.834;2023-06-10T01:38:23;7.58;;;4.85;;
50591;SDS011;36548;50.506;30.834;2023-06-10T01:39:36;7.85;;;5.35;;
50591;SDS011;36548;50.506;30.834;2023-06-10T01:41:01;9.35;;;4.60;;
50591;SDS011;36548;50.506;30.834;2023-06-10T01:42:12;7.62;;;4.83;;
50591;SDS011;36548;50.506;30.834;2023-06-10T01:43:23;8.98;;;5.27;;
50591;SDS011;36548;50.506;30.834;2023-06-10T01:44:38;5.82;;;5.23;;
50591;SDS011;36548;50.506;30.834;2023-06-10T01:45:49;6.50;;;4.50;;
50591;SDS011;36548;50.506;30.834;2023-06-10T01:46:59;6.85;;;5.55;;
50591;SDS011;36548;50.506;30.834;2023-06-10T01:48:15;5.82;;;4.58;;
50591;SDS011;36548;50.506;30.834;2023-06-10T01:49:25;5.80;;;4.85;;
50591;SDS011;36548;50.506;30.834;2023-06-10T01:50:42;6.60;;;4.97;;
50591;SDS011;36548;50.506;30.834;2023-06-10T01:51:52;5.35;;;4.50;;
50591;SDS011;36548;50.506;30.834;2023-06-10T01:53:03;5.30;;;4.80;;
50591;SDS011;36548;50.506;30.834;2023-06-10T01:54:14;5.67;;;4.90;;
50591;SDS011;36548;50.506;30.834;2023-06-10T01:55:29;7.60;;;4.75;;
50591;SDS011;36548;50.506;30.834;2023-06-10T01:56:39;8.43;;;4.93;;
50591;SDS011;36548;50.506;30.834;2023-06-10T01:57:49;6.60;;;4.85;;
50591;SDS011;36548;50.506;30.834;2023-06-10T01:58:59;5.25;;;4.80;;
50591;SDS011;36548;50.506;30.834;2023-06-10T02:00:16;6.62;;;4.68;;
50591;SDS011;36548;50.506;30.834;2023-06-10T02:01:26;5.00;;;4.50;;
50591;SDS011;36548;50.506;30.834;2023-06-10T02:02:36;7.30;;;5.10;;
50591;SDS011;36548;50.506;30.834;2023-06-10T02:03:51;5.20;;;4.50;;
50591;SDS011;36548;50.506;30.834;2023-06-10T02:06:17;5.80;;;4.73;;
50591;SDS011;36548;50.506;30.834;2023-06-10T02:07:28;6.65;;;4.45;;
50591;SDS011;36548;50.506;30.834;2023-06-10T02:08:44;6.07;;;5.00;;
50591;SDS011;36548;50.506;30.834;2023-06-10T02:09:54;5.15;;;4.70;;
50591;SDS011;36548;50.506;30.834;2023-06-10T02:11:11;5.38;;;4.72;;
50591;SDS011;36548;50.506;30.834;2023-06-10T02:12:20;5.27;;;4.77;;
50591;SDS011;36548;50.506;30.834;2023-06-10T02:13:37;11.08;;;5.20;;
50591;SDS011;36548;50.506;30.834;2023-06-10T02:14:46;6.62;;;4.90;;
50591;SDS011;36548;50.506;30.834;2023-06-10T02:17:12;5.30;;;4.60;;
50591;SDS011;36548;50.506;30.834;2023-06-10T02:18:29;6.83;;;5.53;;
50591;SDS011;36548;50.506;30.834;2023-06-10T02:19:39;5.85;;;4.95;;
50591;SDS011;36548;50.506;30.834;2023-06-10T02:20:52;6.28;;;4.98;;
50591;SDS011;36548;50.506;30.834;2023-06-10T02:22:07;5.98;;;5.35;;
50591;SDS011;36548;50.506;30.834;2023-06-10T02:23:17;7.00;;;5.70;;
50591;SDS011;36548;50.506;30.834;2023-06-10T02:24:32;6.60;;;5.43;;
50591;SDS011;36548;50.506;30.834;2023-06-10T02:25:42;6.17;;;4.87;;
50591;SDS011;36548;50.506;30.834;2023-06-10T02:26:51;8.10;;;5.15;;
50591;SDS011;36548;50.506;30.834;2023-06-10T02:28:03;5.25;;;4.75;;
50591;SDS011;36548;50.506;30.834;2023-06-10T02:29:19;6.00;;;5.23;;
50591;SDS011;36548;50.506;30.834;2023-06-10T02:30:29;10.68;;;5.58;;
50591;SDS011;36548;50.506;30.834;2023-06-10T02:31:39;6.40;;;5.65;;
50591;SDS011;36548;50.506;30.834;2023-06-10T02:32:55;7.53;;;5.25;;
50591;SDS011;36548;50.506;30.834;2023-06-10T02:34:05;6.42;;;5.82;;
50591;SDS011;36548;50.506;30.834;2023-06-10T02:35:15;6.08;;;5.18;;
50591;SDS011;36548;50.506;30.834;2023-06-10T02:36:37;7.90;;;5.40;;
50591;SDS011;36548;50.506;30.834;2023-06-10T02:37:46;6.57;;;5.82;;
50591;SDS011;36548;50.506;30.834;2023-06-10T02:39:02;6.68;;;5.12;;
50591;SDS011;36548;50.506;30.834;2023-06-10T02:40:14;5.87;;;5.00;;
50591;SDS011;36548;50.506;30.834;2023-06-10T02:41:29;6.52;;;5.47;;
50591;SDS011;36548;50.506;30.834;2023-06-10T02:42:40;6.42;;;5.45;;
50591;SDS011;36548;50.506;30.834;2023-06-10T02:43:56;7.28;;;5.65;;
50591;SDS011;36548;50.506;30.834;2023-06-10T02:45:06;6.48;;;4.97;;
50591;SDS011;36548;50.506;30.834;2023-06-10T02:46:24;6.20;;;5.10;;
50591;SDS011;36548;50.506;30.834;2023-06-10T02:47:37;6.78;;;4.97;;
50591;SDS011;36548;50.506;30.834;2023-06-10T02:48:48;5.30;;;4.78;;
50591;SDS011;36548;50.506;30.834;2023-06-10T02:50:06;7.65;;;5.45;;
50591;SDS011;36548;50.506;30.834;2023-06-10T02:51:17;7.67;;;5.55;;
50591;SDS011;36548;50.506;30.834;2023-06-10T02:52:34;6.08;;;4.77;;
50591;SDS011;36548;50.506;30.834;2023-06-10T02:53:43;6.23;;;5.42;;
50591;SDS011;36548;50.506;30.834;2023-06-10T02:54:54;5.52;;;5.02;;
50591;SDS011;36548;50.506;30.834;2023-06-10T02:56:04;6.37;;;5.28;;
50591;SDS011;36548;50.506;30.834;2023-06-10T02:57:15;7.23;;;5.47;;
50591;SDS011;36548;50.506;30.834;2023-06-10T02:58:30;8.83;;;5.75;;
50591;SDS011;36548;50.506;30.834;2023-06-10T02:59:41;6.90;;;5.75;;
50591;SDS011;36548;50.506;30.834;2023-06-10T03:00:52;5.68;;;5.07;;
50591;SDS011;36548;50.506;30.834;2023-06-10T03:02:09;6.73;;;5.13;;
50591;SDS011;36548;50.506;30.834;2023-06-10T03:03:21;6.45;;;5.60;;
50591;SDS011;36548;50.506;30.834;2023-06-10T03:04:39;6.38;;;5.34;;
50591;SDS011;36548;50.506;30.834;2023-06-10T03:05:51;6.55;;;5.47;;
50591;SDS011;36548;50.506;30.834;2023-06-10T03:07:01;8.35;;;5.98;;
50591;SDS011;36548;50.506;30.834;2023-06-10T03:08:38;6.23;;;5.63;;
50591;SDS011;36548;50.506;30.834;2023-06-10T03:09:51;6.00;;;5.45;;
50591;SDS011;36548;50.506;30.834;2023-06-10T03:11:01;5.82;;;5.23;;
50591;SDS011;36548;50.506;30.834;2023-06-10T03:12:16;6.93;;;5.27;;
50591;SDS011;36548;50.506;30.834;2023-06-10T03:13:28;5.60;;;5.00;;
50591;SDS011;36548;50.506;30.834;2023-06-10T03:14:44;7.60;;;5.80;;
50591;SDS011;36548;50.506;30.834;2023-06-10T03:15:55;5.65;;;5.10;;
50591;SDS011;36548;50.506;30.834;2023-06-10T03:17:05;5.80;;;5.20;;
50591;SDS011;36548;50.506;30.834;2023-06-10T03:18:16;6.50;;;5.60;;
50591;SDS011;36548;50.506;30.834;2023-06-10T03:19:31;7.73;;;4.90;;
50591;SDS011;36548;50.506;30.834;2023-06-10T03:20:44;8.37;;;5.87;;
50591;SDS011;36548;50.506;30.834;2023-06-10T03:21:57;7.85;;;5.40;;
50591;SDS011;36548;50.506;30.834;2023-06-10T03:23:15;7.20;;;5.12;;
50591;SDS011;36548;50.506;30.834;2023-06-10T03:24:25;8.13;;;5.92;;
50591;SDS011;36548;50.506;30.834;2023-06-10T03:25:47;7.20;;;5.25;;
50591;SDS011;36548;50.506;30.834;2023-06-10T03:26:58;6.28;;;5.30;;
50591;SDS011;36548;50.506;30.834;2023-06-10T03:28:07;5.82;;;5.17;;
50591;SDS011;36548;50.506;30.834;2023-06-10T03:29:22;6.38;;;5.15;;
50591;SDS011;36548;50.506;30.834;2023-06-10T03:30:32;7.55;;;5.95;;
50591;SDS011;36548;50.506;30.834;2023-06-10T03:31:55;5.22;;;4.50;;
50591;SDS011;36548;50.506;30.834;2023-06-10T03:33:07;5.93;;;4.90;;
50591;SDS011;36548;50.506;30.834;2023-06-10T03:34:16;7.95;;;5.47;;
50591;SDS011;36548;50.506;30.834;2023-06-10T03:36:51;6.32;;;5.00;;
50591;SDS011;36548;50.506;30.834;2023-06-10T03:38:06;6.28;;;5.08;;
50591;SDS011;36548;50.506;30.834;2023-06-10T03:39:16;6.10;;;5.35;;
50591;SDS011;36548;50.506;30.834;2023-06-10T03:40:25;5.55;;;4.90;;
50591;SDS011;36548;50.506;30.834;2023-06-10T03:41:35;6.20;;;5.33;;
50591;SDS011;36548;50.506;30.834;2023-06-10T03:42:53;8.00;;;4.90;;
50591;SDS011;36548;50.506;30.834;2023-06-10T03:44:04;5.65;;;5.05;;
50591;SDS011;36548;50.506;30.834;2023-06-10T03:45:12;5.40;;;4.85;;
50591;SDS011;36548;50.506;30.834;2023-06-10T03:46:28;5.87;;;5.37;;
50591;SDS011;36548;50.506;30.834;2023-06-10T03:47:37;10.73;;;5.17;;
50591;SDS011;36548;50.506;30.834;2023-06-10T03:48:49;6.50;;;5.10;;
50591;SDS011;36548;50.506;30.834;2023-06-10T03:50:05;5.95;;;5.03;;
50591;SDS011;36548;50.506;30.834;2023-06-10T03:51:18;7.45;;;5.25;;
50591;SDS011;36548;50.506;30.834;2023-06-10T03:52:39;5.55;;;5.02;;
50591;SDS011;36548;50.506;30.834;2023-06-10T03:55:05;6.40;;;5.25;;
50591;SDS011;36548;50.506;30.834;2023-06-10T03:56:16;6.25;;;5.32;;
50591;SDS011;36548;50.506;30.834;2023-06-10T03:57:26;5.10;;;4.60;;
50591;SDS011;36548;50.506;30.834;2023-06-10T03:58:42;5.56;;;4.78;;
50591;SDS011;36548;50.506;30.834;2023-06-10T04:01:03;7.30;;;5.15;;
50591;SDS011;36548;50.506;30.834;2023-06-10T04:02:14;6.33;;;5.72;;
50591;SDS011;36548;50.506;30.834;2023-06-10T04:03:25;5.82;;;4.85;;
50591;SDS011;36548;50.506;30.834;2023-06-10T04:04:36;6.68;;;4.77;;
50591;SDS011;36548;50.506;30.834;2023-06-10T04:05:47;5.00;;;4.20;;
50591;SDS011;36548;50.506;30.834;2023-06-10T04:07:22;5.65;;;5.00;;
50591;SDS011;36548;50.506;30.834;2023-06-10T04:08:33;5.20;;;4.70;;
50591;SDS011;36548;50.506;30.834;2023-06-10T04:09:42;5.87;;;4.55;;
50591;SDS011;36548;50.506;30.834;2023-06-10T04:10:52;4.85;;;4.40;;
50591;SDS011;36548;50.506;30.834;2023-06-10T04:12:02;6.27;;;5.00;;
50591;SDS011;36548;50.506;30.834;2023-06-10T04:13:21;5.65;;;4.60;;
50591;SDS011;36548;50.506;30.834;2023-06-10T04:14:34;5.77;;;4.90;;
50591;SDS011;36548;50.506;30.834;2023-06-10T04:15:51;5.85;;;5.12;;
50591;SDS011;36548;50.506;30.834;2023-06-10T04:18:11;5.03;;;4.53;;
50591;SDS011;36548;50.506;30.834;2023-06-10T04:19:32;6.88;;;4.38;;
50591;SDS011;36548;50.506;30.834;2023-06-10T04:20:41;4.98;;;4.52;;
50591;SDS011;36548;50.506;30.834;2023-06-10T04:21:54;7.42;;;4.73;;
50591;SDS011;36548;50.506;30.834;2023-06-10T04:23:03;5.43;;;4.58;;
50591;SDS011;36548;50.506;30.834;2023-06-10T04:24:13;5.67;;;4.40;;
50591;SDS011;36548;50.506;30.834;2023-06-10T04:25:28;5.28;;;4.77;;
50591;SDS011;36548;50.506;30.834;2023-06-10T04:26:38;6.90;;;4.65;;
50591;SDS011;36548;50.506;30.834;2023-06-10T04:27:53;6.50;;;4.40;;
50591;SDS011;36548;50.506;30.834;2023-06-10T04:29:06;5.02;;;4.12;;
50591;SDS011;36548;50.506;30.834;2023-06-10T04:30:22;5.92;;;4.55;;
50591;SDS011;36548;50.506;30.834;2023-06-10T04:31:32;4.87;;;4.28;;
50591;SDS011;36548;50.506;30.834;2023-06-10T04:32:41;5.22;;;4.63;;
50591;SDS011;36548;50.506;30.834;2023-06-10T04:33:52;7.18;;;4.63;;
50591;SDS011;36548;50.506;30.834;2023-06-10T04:35:11;5.43;;;4.15;;
50591;SDS011;36548;50.506;30.834;2023-06-10T04:36:23;4.75;;;4.15;;
50591;SDS011;36548;50.506;30.834;2023-06-10T04:38:42;4.80;;;3.70;;
50591;SDS011;36548;50.506;30.834;2023-06-10T04:39:57;6.40;;;4.18;;
50591;SDS011;36548;50.506;30.834;2023-06-10T04:41:10;5.40;;;4.35;;
50591;SDS011;36548;50.506;30.834;2023-06-10T04:42:26;7.00;;;4.05;;
50591;SDS011;36548;50.506;30.834;2023-06-10T04:44:45;4.85;;;3.70;;
50591;SDS011;36548;50.506;30.834;2023-06-10T04:46:00;7.65;;;4.27;;
50591;SDS011;36548;50.506;30.834;2023-06-10T04:47:10;6.28;;;4.28;;
50591;SDS011;36548;50.506;30.834;2023-06-10T04:48:25;4.78;;;4.38;;
50591;SDS011;36548;50.506;30.834;2023-06-10T04:49:35;4.37;;;3.97;;
50591;SDS011;36548;50.506;30.834;2023-06-10T04:50:45;4.80;;;4.20;;
50591;SDS011;36548;50.506;30.834;2023-06-10T04:52:01;5.32;;;3.92;;
50591;SDS011;36548;50.506;30.834;2023-06-10T04:53:16;3.97;;;3.58;;
50591;SDS011;36548;50.506;30.834;2023-06-10T04:54:32;4.97;;;4.08;;
50591;SDS011;36548;50.506;30.834;2023-06-10T04:55:43;4.90;;;4.25;;
50591;SDS011;36548;50.506;30.834;2023-06-10T04:56:58;4.30;;;3.83;;
50591;SDS011;36548;50.506;30.834;2023-06-10T04:58:09;5.15;;;4.00;;
50591;SDS011;36548;50.506;30.834;2023-06-10T04:59:25;5.80;;;3.87;;
50591;SDS011;36548;50.506;30.834;2023-06-10T05:00:35;4.42;;;4.08;;
50591;SDS011;36548;50.506;30.834;2023-06-10T05:01:46;6.95;;;4.05;;
50591;SDS011;36548;50.506;30.834;2023-06-10T05:02:57;5.75;;;3.80;;
50591;SDS011;36548;50.506;30.834;2023-06-10T05:04:08;6.10;;;4.30;;
50591;SDS011;36548;50.506;30.834;2023-06-10T05:05:18;5.47;;;4.03;;
50591;SDS011;36548;50.506;30.834;2023-06-10T05:06:28;5.00;;;4.20;;
50591;SDS011;36548;50.506;30.834;2023-06-10T05:07:45;7.03;;;3.92;;
50591;SDS011;36548;50.506;30.834;2023-06-10T05:08:55;5.55;;;3.50;;
50591;SDS011;36548;50.506;30.834;2023-06-10T05:10:04;5.90;;;3.52;;
50591;SDS011;36548;50.506;30.834;2023-06-10T05:11:14;3.75;;;3.45;;
50591;SDS011;36548;50.506;30.834;2023-06-10T05:12:23;4.58;;;4.08;;
50591;SDS011;36548;50.506;30.834;2023-06-10T05:13:41;6.02;;;4.82;;
50591;SDS011;36548;50.506;30.834;2023-06-10T05:14:51;5.33;;;3.97;;
50591;SDS011;36548;50.506;30.834;2023-06-10T05:16:00;5.88;;;4.23;;
50591;SDS011;36548;50.506;30.834;2023-06-10T05:17:16;6.93;;;4.53;;
50591;SDS011;36548;50.506;30.834;2023-06-10T05:18:25;5.72;;;3.67;;
50591;SDS011;36548;50.506;30.834;2023-06-10T05:19:41;5.35;;;3.67;;
50591;SDS011;36548;50.506;30.834;2023-06-10T05:20:51;4.40;;;3.75;;
50591;SDS011;36548;50.506;30.834;2023-06-10T05:22:08;4.50;;;3.72;;
50591;SDS011;36548;50.506;30.834;2023-06-10T05:23:18;5.65;;;3.65;;
50591;SDS011;36548;50.506;30.834;2023-06-10T05:24:34;4.82;;;3.95;;
50591;SDS011;36548;50.506;30.834;2023-06-10T05:25:44;5.80;;;3.35;;
50591;SDS011;36548;50.506;30.834;2023-06-10T05:26:55;4.45;;;3.70;;
50591;SDS011;36548;50.506;30.834;2023-06-10T05:28:11;4.10;;;3.68;;
50591;SDS011;36548;50.506;30.834;2023-06-10T05:29:22;6.53;;;3.68;;
50591;SDS011;36548;50.506;30.834;2023-06-10T05:30:38;6.67;;;3.67;;
50591;SDS011;36548;50.506;30.834;2023-06-10T05:31:48;4.30;;;3.33;;
50591;SDS011;36548;50.506;30.834;2023-06-10T05:33:08;5.12;;;4.17;;
50591;SDS011;36548;50.506;30.834;2023-06-10T05:34:17;5.13;;;3.98;;
50591;SDS011;36548;50.506;30.834;2023-06-10T05:35:27;4.65;;;3.85;;
50591;SDS011;36548;50.506;30.834;2023-06-10T05:36:38;5.75;;;3.32;;
50591;SDS011;36548;50.506;30.834;2023-06-10T05:37:48;4.45;;;3.80;;
50591;SDS011;36548;50.506;30.834;2023-06-10T05:38:58;6.15;;;3.90;;
50591;SDS011;36548;50.506;30.834;2023-06-10T05:40:13;5.07;;;3.87;;
50591;SDS011;36548;50.506;30.834;2023-06-10T05:41:21;5.38;;;4.17;;
50591;SDS011;36548;50.506;30.834;2023-06-10T05:42:31;5.63;;;4.27;;
50591;SDS011;36548;50.506;30.834;2023-06-10T05:43:46;4.35;;;3.75;;
50591;SDS011;36548;50.506;30.834;2023-06-10T05:44:57;5.33;;;4.25;;
50591;SDS011;36548;50.506;30.834;2023-06-10T05:46:13;5.08;;;4.18;;
50591;SDS011;36548;50.506;30.834;2023-06-10T05:47:23;5.35;;;3.90;;
50591;SDS011;36548;50.506;30.834;2023-06-10T05:48:38;5.22;;;3.98;;
50591;SDS011;36548;50.506;30.834;2023-06-10T05:49:46;4.35;;;3.40;;
50591;SDS011;36548;50.506;30.834;2023-06-10T05:51:04;4.83;;;4.02;;
50591;SDS011;36548;50.506;30.834;2023-06-10T05:52:14;4.25;;;3.60;;
50591;SDS011;36548;50.506;30.834;2023-06-10T05:54:33;4.33;;;3.25;;
50591;SDS011;36548;50.506;30.834;2023-06-10T05:55:48;5.13;;;3.35;;
50591;SDS011;36548;50.506;30.834;2023-06-10T05:56:59;4.42;;;4.00;;
50591;SDS011;36548;50.506;30.834;2023-06-10T05:58:14;4.02;;;3.63;;
50591;SDS011;36548;50.506;30.834;2023-06-10T05:59:23;3.33;;;3.08;;
50591;SDS011;36548;50.506;30.834;2023-06-10T06:00:39;4.75;;;3.15;;
50591;SDS011;36548;50.506;30.834;2023-06-10T06:01:49;3.90;;;3.45;;
50591;SDS011;36548;50.506;30.834;2023-06-10T06:02:58;4.65;;;3.70;;
50591;SDS011;36548;50.506;30.834;2023-06-10T06:04:14;4.68;;;3.82;;
50591;SDS011;36548;50.506;30.834;2023-06-10T06:05:25;4.15;;;3.70;;
50591;SDS011;36548;50.506;30.834;2023-06-10T06:06:45;4.92;;;3.32;;
50591;SDS011;36548;50.506;30.834;2023-06-10T06:07:56;4.40;;;3.75;;
50591;SDS011;36548;50.506;30.834;2023-06-10T06:09:06;4.00;;;3.40;;
50591;SDS011;36548;50.506;30.834;2023-06-10T06:10:18;6.50;;;3.12;;
50591;SDS011;36548;50.506;30.834;2023-06-10T06:11:28;3.93;;;3.40;;
50591;SDS011;36548;50.506;30.834;2023-06-10T06:12:44;3.95;;;3.40;;
50591;SDS011;36548;50.506;30.834;2023-06-10T06:13:53;5.60;;;3.40;;
50591;SDS011;36548;50.506;30.834;2023-06-10T06:15:09;4.65;;;3.45;;
50591;SDS011;36548;50.506;30.834;2023-06-10T06:16:20;8.63;;;6.52;;
50591;SDS011;36548;50.506;30.834;2023-06-10T06:17:30;5.15;;;3.50;;
50591;SDS011;36548;50.506;30.834;2023-06-10T06:18:42;5.23;;;3.60;;
50591;SDS011;36548;50.506;30.834;2023-06-10T06:19:52;4.78;;;3.70;;
50591;SDS011;36548;50.506;30.834;2023-06-10T06:21:02;3.80;;;3.45;;
50591;SDS011;36548;50.506;30.834;2023-06-10T06:22:17;5.98;;;3.67;;
50591;SDS011;36548;50.506;30.834;2023-06-10T06:23:30;5.78;;;3.27;;
50591;SDS011;36548;50.506;30.834;2023-06-10T06:24:45;6.88;;;3.05;;
50591;SDS011;36548;50.506;30.834;2023-06-10T06:25:55;4.75;;;3.55;;
50591;SDS011;36548;50.506;30.834;2023-06-10T06:27:17;3.53;;;3.07;;
50591;SDS011;36548;50.506;30.834;2023-06-10T06:28:26;6.13;;;3.65;;
50591;SDS011;36548;50.506;30.834;2023-06-10T06:29:43;4.33;;;3.43;;
50591;SDS011;36548;50.506;30.834;2023-06-10T06:30:53;3.72;;;3.07;;
50591;SDS011;36548;50.506;30.834;2023-06-10T06:32:08;5.77;;;3.75;;
50591;SDS011;36548;50.506;30.834;2023-06-10T06:33:18;3.90;;;3.58;;
50591;SDS011;36548;50.506;30.834;2023-06-10T06:34:34;3.87;;;3.27;;
50591;SDS011;36548;50.506;30.834;2023-06-10T06:35:43;5.75;;;3.33;;
50591;SDS011;36548;50.506;30.834;2023-06-10T06:36:59;3.63;;;3.17;;
50591;SDS011;36548;50.506;30.834;2023-06-10T06:38:10;3.72;;;2.92;;
50591;SDS011;36548;50.506;30.834;2023-06-10T06:39:20;4.10;;;3.50;;
50591;SDS011;36548;50.506;30.834;2023-06-10T06:41:39;4.55;;;3.15;;
50591;SDS011;36548;50.506;30.834;2023-06-10T06:42:54;6.03;;;3.58;;
50591;SDS011;36548;50.506;30.834;2023-06-10T06:44:22;4.98;;;3.42;;
50591;SDS011;36548;50.506;30.834;2023-06-10T06:45:38;5.00;;;3.65;;
50591;SDS011;36548;50.506;30.834;2023-06-10T06:47:59;3.35;;;3.05;;
50591;SDS011;36548;50.506;30.834;2023-06-10T06:49:14;6.37;;;3.62;;
50591;SDS011;36548;50.506;30.834;2023-06-10T06:50:23;5.58;;;3.75;;
50591;SDS011;36548;50.506;30.834;2023-06-10T06:51:45;4.37;;;3.53;;
50591;SDS011;36548;50.506;30.834;2023-06-10T06:52:56;5.80;;;4.05;;
50591;SDS011;36548;50.506;30.834;2023-06-10T06:54:11;6.20;;;3.55;;
50591;SDS011;36548;50.506;30.834;2023-06-10T06:55:20;5.15;;;3.40;;
50591;SDS011;36548;50.506;30.834;2023-06-10T06:56:35;5.42;;;3.67;;
50591;SDS011;36548;50.506;30.834;2023-06-10T06:57:44;5.33;;;3.37;;
50591;SDS011;36548;50.506;30.834;2023-06-10T06:58:54;5.65;;;3.45;;
50591;SDS011;36548;50.506;30.834;2023-06-10T07:21:04;3.58;;;3.28;;
50591;SDS011;36548;50.506;30.834;2023-06-10T07:22:13;4.40;;;3.90;;
50591;SDS011;36548;50.506;30.834;2023-06-10T07:23:29;5.30;;;4.02;;
50591;SDS011;36548;50.506;30.834;2023-06-10T07:24:39;5.53;;;3.98;;
50591;SDS011;36548;50.506;30.834;2023-06-10T07:25:51;5.03;;;3.62;;
50591;SDS011;36548;50.506;30.834;2023-06-10T07:27:18;7.85;;;4.00;;
50591;SDS011;36548;50.506;30.834;2023-06-10T07:28:27;4.12;;;3.58;;
50591;SDS011;36548;50.506;30.834;2023-06-10T07:29:43;4.75;;;3.85;;
50591;SDS011;36548;50.506;30.834;2023-06-10T07:30:51;4.45;;;3.85;;
50591;SDS011;36548;50.506;30.834;2023-06-10T07:32:04;6.67;;;4.35;;
50591;SDS011;36548;50.506;30.834;2023-06-10T07:33:31;5.17;;;3.93;;
50591;SDS011;36548;50.506;30.834;2023-06-10T07:34:46;5.75;;;3.90;;
50591;SDS011;36548;50.506;30.834;2023-06-10T07:35:55;4.07;;;3.40;;
50591;SDS011;36548;50.506;30.834;2023-06-10T07:37:10;5.48;;;4.10;;
50591;SDS011;36548;50.506;30.834;2023-06-10T07:38:18;4.28;;;3.83;;
50591;SDS011;36548;50.506;30.834;2023-06-10T07:39:33;4.42;;;3.95;;
50591;SDS011;36548;50.506;30.834;2023-06-10T07:40:44;5.40;;;3.85;;
50591;SDS011;36548;50.506;30.834;2023-06-10T07:41:54;4.45;;;4.05;;
50591;SDS011;36548;50.506;30.834;2023-06-10T07:43:23;4.62;;;4.08;;
50591;SDS011;36548;50.506;30.834;2023-06-10T07:44:39;5.62;;;3.92;;
50591;SDS011;36548;50.506;30.834;2023-06-10T07:45:47;5.83;;;3.75;;
50591;SDS011;36548;50.506;30.834;2023-06-10T07:47:08;6.05;;;4.30;;
50591;SDS011;36548;50.506;30.834;2023-06-10T07:48:21;6.35;;;4.40;;
50591;SDS011;36548;50.506;30.834;2023-06-10T07:49:37;4.80;;;3.80;;
50591;SDS011;36548;50.506;30.834;2023-06-10T07:50:48;4.85;;;4.15;;
50591;SDS011;36548;50.506;30.834;2023-06-10T07:51:57;4.48;;;3.80;;
50591;SDS011;36548;50.506;30.834;2023-06-10T07:53:24;5.15;;;4.35;;
50591;SDS011;36548;50.506;30.834;2023-06-10T07:55:45;4.20;;;3.75;;
50591;SDS011;36548;50.506;30.834;2023-06-10T07:57:01;6.90;;;4.12;;
50591;SDS011;36548;50.506;30.834;2023-06-10T07:58:11;4.35;;;3.75;;
50591;SDS011;36548;50.506;30.834;2023-06-10T07:59:26;8.38;;;4.30;;
50591;SDS011;36548;50.506;30.834;2023-06-10T08:00:36;8.52;;;3.97;;
50591;SDS011;36548;50.506;30.834;2023-06-10T08:01:46;5.65;;;4.30;;